createdAt,value
2018-08-03T00:00:21.526Z,21.36
2018-08-03T00:01:21.447Z,21.35
2018-08-03T00:02:21.387Z,21.35
2018-08-03T00:03:21.306Z,21.31
2018-08-03T00:04:21.245Z,21.33
2018-08-03T00:05:21.166Z,21.27
2018-08-03T00:06:21.103Z,21.23
2018-08-03T00:07:21.025Z,21.12
2018-08-03T00:08:20.961Z,21.14
2018-08-03T00:09:20.883Z,21.19
2018-08-03T00:10:20.819Z,21.09
2018-08-03T00:11:20.740Z,21.21
2018-08-03T00:12:20.679Z,21.16
2018-08-03T00:13:20.600Z,21.16
2018-08-03T00:14:20.541Z,21.16
2018-08-03T00:15:20.460Z,21.16
2018-08-03T00:16:20.395Z,21.17
2018-08-03T00:17:20.315Z,21.19
2018-08-03T00:18:20.259Z,21.11
2018-08-03T00:19:20.174Z,20.98
2018-08-03T00:20:20.112Z,21.17
2018-08-03T00:21:20.031Z,21.06
2018-08-03T00:22:19.975Z,21.11
2018-08-03T00:23:19.890Z,21.04
2018-08-03T00:24:19.832Z,21.06
2018-08-03T00:25:19.749Z,21.05
2018-08-03T00:26:19.701Z,20.96
2018-08-03T00:27:19.610Z,20.90
2018-08-03T00:28:19.545Z,20.89
2018-08-03T00:29:19.471Z,20.87
2018-08-03T00:30:19.407Z,20.87
2018-08-03T00:31:19.325Z,20.94
2018-08-03T00:32:19.264Z,20.87
2018-08-03T00:33:19.185Z,20.87
2018-08-03T00:34:19.119Z,20.91
2018-08-03T00:35:19.042Z,20.76
2018-08-03T00:36:18.980Z,20.68
2018-08-03T00:37:18.899Z,20.69
2018-08-03T00:38:18.836Z,20.71
2018-08-03T00:39:18.760Z,20.66
2018-08-03T00:40:18.694Z,20.69
2018-08-03T00:41:18.615Z,20.69
2018-08-03T00:42:18.555Z,20.69
2018-08-03T00:43:18.473Z,20.72
2018-08-03T00:44:18.413Z,20.84
2018-08-03T00:45:18.333Z,20.66
2018-08-03T00:46:18.269Z,20.71
2018-08-03T00:47:18.188Z,20.66
2018-08-03T00:48:18.126Z,20.59
2018-08-03T00:49:18.050Z,20.65
2018-08-03T00:50:17.983Z,20.51
2018-08-03T00:51:17.904Z,20.47
2018-08-03T00:52:17.841Z,20.47
2018-08-03T00:53:17.767Z,20.50
2018-08-03T00:54:17.697Z,20.54
2018-08-03T00:55:17.623Z,20.57
2018-08-03T00:56:17.558Z,20.51
2018-08-03T00:57:17.480Z,20.54
2018-08-03T00:58:17.414Z,20.53
2018-08-03T00:59:17.337Z,20.49
2018-08-03T01:00:17.271Z,20.64
2018-08-03T01:01:17.190Z,20.51
2018-08-03T01:02:17.131Z,20.51
2018-08-03T01:03:17.049Z,20.54
2018-08-03T01:04:16.989Z,20.49
2018-08-03T01:05:16.910Z,20.43
2018-08-03T01:06:16.849Z,20.42
2018-08-03T01:07:16.766Z,20.34
2018-08-03T01:08:16.710Z,20.40
2018-08-03T01:09:16.624Z,20.37
2018-08-03T01:10:16.565Z,20.31
2018-08-03T01:11:16.484Z,20.35
2018-08-03T01:12:16.420Z,20.34
2018-08-03T01:13:16.339Z,20.31
2018-08-03T01:14:16.279Z,20.30
2018-08-03T01:15:16.198Z,20.23
2018-08-03T01:16:16.142Z,20.40
2018-08-03T01:17:16.055Z,20.40
2018-08-03T01:18:15.995Z,20.47
2018-08-03T01:19:15.911Z,20.33
2018-08-03T01:20:15.847Z,20.50
2018-08-03T01:21:15.769Z,20.43
2018-08-03T01:22:15.704Z,20.40
2018-08-03T01:23:15.631Z,20.47
2018-08-03T01:24:15.563Z,20.50
2018-08-03T01:25:15.486Z,20.50
2018-08-03T01:26:15.420Z,20.54
2018-08-03T01:27:15.343Z,20.53
2018-08-03T01:28:15.276Z,20.40
2018-08-03T01:29:15.206Z,20.35
2018-08-03T01:30:15.141Z,20.42
2018-08-03T01:31:15.057Z,20.40
2018-08-03T01:32:14.988Z,20.47
2018-08-03T01:33:14.913Z,20.47
2018-08-03T01:34:14.850Z,20.47
2018-08-03T01:35:14.778Z,20.53
2018-08-03T01:36:14.704Z,20.43
2018-08-03T01:37:14.626Z,20.51
2018-08-03T01:38:14.564Z,20.51
2018-08-03T01:39:14.483Z,20.53
2018-08-03T01:40:14.423Z,20.49
2018-08-03T01:41:14.339Z,20.47
2018-08-03T01:42:14.279Z,20.43
2018-08-03T01:43:14.201Z,20.34
2018-08-03T01:44:14.133Z,20.26
2018-08-03T01:45:14.054Z,20.38
2018-08-03T01:46:13.991Z,20.35
2018-08-03T01:47:13.914Z,20.27
2018-08-03T01:48:13.857Z,20.34
2018-08-03T01:49:13.768Z,20.34
2018-08-03T01:50:13.715Z,20.28
2018-08-03T01:51:13.635Z,20.31
2018-08-03T01:52:13.567Z,20.35
2018-08-03T01:53:13.486Z,20.40
2018-08-03T01:54:13.418Z,20.30
2018-08-03T01:55:13.341Z,20.33
2018-08-03T01:56:13.282Z,20.31
2018-08-03T01:57:13.199Z,20.24
2018-08-03T01:58:13.135Z,20.30
2018-08-03T01:59:13.142Z,20.31
2018-08-03T02:00:12.991Z,20.35
2018-08-03T02:01:12.915Z,20.34
2018-08-03T02:02:12.845Z,20.35
2018-08-03T02:03:12.776Z,20.42
2018-08-03T02:04:12.708Z,20.34
2018-08-03T02:05:12.627Z,20.42
2018-08-03T02:06:12.563Z,20.30
2018-08-03T02:07:12.486Z,20.28
2018-08-03T02:08:12.423Z,20.30
2018-08-03T02:09:12.343Z,20.30
2018-08-03T02:10:12.278Z,20.35
2018-08-03T02:11:12.202Z,20.34
2018-08-03T02:12:12.132Z,20.40
2018-08-03T02:13:12.054Z,20.35
2018-08-03T02:14:11.991Z,20.30
2018-08-03T02:15:11.911Z,20.31
2018-08-03T02:16:11.851Z,20.30
2018-08-03T02:17:11.767Z,20.38
2018-08-03T02:18:11.711Z,20.28
2018-08-03T02:19:11.631Z,20.34
2018-08-03T02:20:11.567Z,20.10
2018-08-03T02:21:11.482Z,20.08
2018-08-03T02:22:11.418Z,19.98
2018-08-03T02:23:11.340Z,19.95
2018-08-03T02:24:11.274Z,19.90
2018-08-03T02:25:11.198Z,19.72
2018-08-03T02:26:11.136Z,19.79
2018-08-03T02:27:11.057Z,19.78
2018-08-03T02:28:10.987Z,19.75
2018-08-03T02:29:10.909Z,19.82
2018-08-03T02:30:10.847Z,19.80
2018-08-03T02:31:10.781Z,19.76
2018-08-03T02:32:10.705Z,19.79
2018-08-03T02:33:10.626Z,19.87
2018-08-03T02:34:10.561Z,19.73
2018-08-03T02:35:10.481Z,19.83
2018-08-03T02:36:10.421Z,19.91
2018-08-03T02:37:10.341Z,19.87
2018-08-03T02:38:10.270Z,19.86
2018-08-03T02:39:10.195Z,19.78
2018-08-03T02:40:10.130Z,19.75
2018-08-03T02:41:10.052Z,19.80
2018-08-03T02:42:09.987Z,19.78
2018-08-03T02:43:09.908Z,19.79
2018-08-03T02:44:09.843Z,19.87
2018-08-03T02:45:09.768Z,19.90
2018-08-03T02:46:09.700Z,19.88
2018-08-03T02:47:09.619Z,19.87
2018-08-03T02:48:09.555Z,19.91
2018-08-03T02:49:09.475Z,19.88
2018-08-03T02:50:09.413Z,19.87
2018-08-03T02:51:09.332Z,19.83
2018-08-03T02:52:09.269Z,19.87
2018-08-03T02:53:09.193Z,19.91
2018-08-03T02:54:09.126Z,19.88
2018-08-03T02:55:09.048Z,19.87
2018-08-03T02:56:08.979Z,19.94
2018-08-03T02:57:08.909Z,19.88
2018-08-03T02:58:08.841Z,19.90
2018-08-03T02:59:08.759Z,19.79
2018-08-03T03:00:08.692Z,19.75
2018-08-03T03:01:08.612Z,19.73
2018-08-03T03:02:08.554Z,19.64
2018-08-03T03:03:08.470Z,19.64
2018-08-03T03:04:08.410Z,19.54
2018-08-03T03:05:08.339Z,19.64
2018-08-03T03:06:08.263Z,19.50
2018-08-03T03:07:08.184Z,19.58
2018-08-03T03:08:08.121Z,19.60
2018-08-03T03:09:08.037Z,19.61
2018-08-03T03:10:07.978Z,19.64
2018-08-03T03:11:07.896Z,19.51
2018-08-03T03:12:07.832Z,19.61
2018-08-03T03:13:07.757Z,19.61
2018-08-03T03:14:07.689Z,19.48
2018-08-03T03:15:07.610Z,19.50
2018-08-03T03:16:07.545Z,19.51
2018-08-03T03:17:07.464Z,19.51
2018-08-03T03:18:07.399Z,19.50
2018-08-03T03:19:07.320Z,19.46
2018-08-03T03:20:07.255Z,19.50
2018-08-03T03:21:07.181Z,19.50
2018-08-03T03:22:07.113Z,19.58
2018-08-03T03:23:07.033Z,19.54
2018-08-03T03:24:06.970Z,19.53
2018-08-03T03:25:06.890Z,19.42
2018-08-03T03:26:06.825Z,19.28
2018-08-03T03:27:06.750Z,19.35
2018-08-03T03:28:06.682Z,19.35
2018-08-03T03:29:06.600Z,19.35
2018-08-03T03:30:06.540Z,19.33
2018-08-03T03:31:06.458Z,19.38
2018-08-03T03:32:06.392Z,19.43
2018-08-03T03:33:06.331Z,19.45
2018-08-03T03:34:06.255Z,19.43
2018-08-03T03:35:06.170Z,19.40
2018-08-03T03:36:06.102Z,19.43
2018-08-03T03:37:06.030Z,19.40
2018-08-03T03:38:05.959Z,19.40
2018-08-03T03:39:05.883Z,19.42
2018-08-03T03:40:05.888Z,19.46
2018-08-03T03:41:05.740Z,19.51
2018-08-03T03:42:05.700Z,19.53
2018-08-03T03:43:05.596Z,19.48
2018-08-03T03:44:05.610Z,19.51
2018-08-03T03:45:05.455Z,19.60
2018-08-03T03:46:05.382Z,19.46
2018-08-03T03:47:05.309Z,19.51
2018-08-03T03:48:05.332Z,19.51
2018-08-03T03:49:05.167Z,19.55
2018-08-03T03:50:05.139Z,19.58
2018-08-03T03:51:05.107Z,19.53
2018-08-03T03:52:05.055Z,19.48
2018-08-03T03:53:04.872Z,19.58
2018-08-03T03:54:04.805Z,19.58
2018-08-03T03:55:04.729Z,19.55
2018-08-03T03:56:04.770Z,19.61
2018-08-03T03:57:04.585Z,19.58
2018-08-03T03:58:04.517Z,19.58
2018-08-03T03:59:04.449Z,19.58
2018-08-03T04:00:04.371Z,19.65
2018-08-03T04:01:04.291Z,19.63
2018-08-03T04:02:04.230Z,19.69
2018-08-03T04:03:04.162Z,19.65
2018-08-03T04:04:04.107Z,19.63
2018-08-03T04:05:04.007Z,19.61
2018-08-03T04:06:04.018Z,19.61
2018-08-03T04:07:03.859Z,19.60
2018-08-03T04:08:03.795Z,19.48
2018-08-03T04:09:03.721Z,19.42
2018-08-03T04:10:03.653Z,19.38
2018-08-03T04:11:03.625Z,19.21
2018-08-03T04:12:03.509Z,19.27
2018-08-03T04:13:03.427Z,19.35
2018-08-03T04:14:03.456Z,19.33
2018-08-03T04:15:03.286Z,19.27
2018-08-03T04:16:03.221Z,19.35
2018-08-03T04:17:03.140Z,19.33
2018-08-03T04:18:03.175Z,19.27
2018-08-03T04:19:03.001Z,19.17
2018-08-03T04:20:02.984Z,19.14
2018-08-03T04:21:02.853Z,19.13
2018-08-03T04:22:02.897Z,19.18
2018-08-03T04:23:02.710Z,19.15
2018-08-03T04:24:02.644Z,19.17
2018-08-03T04:25:02.566Z,19.11
2018-08-03T04:26:02.514Z,19.15
2018-08-03T04:27:02.423Z,19.20
2018-08-03T04:28:02.424Z,19.11
2018-08-03T04:29:02.271Z,19.17
2018-08-03T04:30:02.232Z,19.27
2018-08-03T04:31:02.133Z,19.28
2018-08-03T04:32:02.144Z,19.33
2018-08-03T04:33:01.984Z,19.32
2018-08-03T04:34:01.923Z,19.36
2018-08-03T04:35:01.842Z,19.43
2018-08-03T04:36:01.864Z,19.43
2018-08-03T04:37:01.698Z,19.50
2018-08-03T04:38:01.676Z,19.53
2018-08-03T04:39:01.603Z,19.48
2018-08-03T04:40:01.587Z,19.51
2018-08-03T04:41:01.406Z,19.64
2018-08-03T04:42:01.393Z,19.55
2018-08-03T04:43:01.267Z,19.46
2018-08-03T04:44:01.199Z,19.58
2018-08-03T04:45:01.119Z,19.60
2018-08-03T04:46:01.110Z,19.54
2018-08-03T04:47:00.972Z,19.57
2018-08-03T04:48:00.920Z,19.64
2018-08-03T04:49:00.830Z,19.60
2018-08-03T04:50:00.831Z,19.65
2018-08-03T04:51:00.699Z,19.60
2018-08-03T04:52:00.641Z,19.65
2018-08-03T04:53:00.553Z,19.76
2018-08-03T04:54:00.553Z,19.76
2018-08-03T04:55:00.396Z,19.76
2018-08-03T04:56:00.328Z,19.79
2018-08-03T04:57:00.248Z,19.79
2018-08-03T04:58:00.271Z,19.75
2018-08-03T04:59:00.108Z,19.79
2018-08-03T05:00:00.104Z,19.79
2018-08-03T05:00:59.959Z,19.88
2018-08-03T05:01:59.995Z,19.88
2018-08-03T05:02:59.824Z,19.83
2018-08-03T05:04:04.405Z,19.88
2018-08-03T05:04:59.675Z,19.93
2018-08-03T05:06:01.657Z,19.93
2018-08-03T05:06:59.533Z,19.94
2018-08-03T05:08:04.436Z,19.95
2018-08-03T05:08:59.383Z,20.01
2018-08-03T05:10:04.859Z,19.95
2018-08-03T05:10:59.243Z,20.00
2018-08-03T05:12:00.272Z,19.98
2018-08-03T05:12:59.103Z,20.00
2018-08-03T05:13:59.048Z,19.93
2018-08-03T05:14:58.951Z,20.01
2018-08-03T05:15:58.958Z,19.98
2018-08-03T05:16:59.324Z,20.03
2018-08-03T05:17:58.768Z,20.18
2018-08-03T05:18:58.666Z,20.16
2018-08-03T05:19:58.679Z,20.20
2018-08-03T05:20:58.522Z,20.24
2018-08-03T05:21:58.451Z,20.20
2018-08-03T05:22:58.500Z,20.27
2018-08-03T05:23:58.304Z,20.30
2018-08-03T05:24:58.230Z,20.28
2018-08-03T05:25:58.169Z,20.38
2018-08-03T05:26:58.111Z,20.35
2018-08-03T05:27:58.021Z,20.46
2018-08-03T05:28:58.025Z,20.49
2018-08-03T05:29:57.884Z,20.50
2018-08-03T05:30:57.832Z,20.47
2018-08-03T05:31:57.729Z,20.51
2018-08-03T05:32:57.741Z,20.56
2018-08-03T05:33:57.582Z,20.53
2018-08-03T05:34:57.554Z,20.61
2018-08-03T05:35:57.530Z,20.61
2018-08-03T05:36:57.464Z,20.66
2018-08-03T05:37:57.303Z,20.69
2018-08-03T05:38:57.273Z,20.65
2018-08-03T05:39:57.161Z,20.76
2018-08-03T05:40:57.202Z,20.82
2018-08-03T05:41:57.017Z,20.79
2018-08-03T05:42:56.989Z,20.80
2018-08-03T05:43:56.865Z,20.90
2018-08-03T05:44:56.802Z,20.87
2018-08-03T05:45:56.811Z,20.91
2018-08-03T05:46:56.662Z,20.94
2018-08-03T05:47:56.613Z,20.98
2018-08-03T05:48:56.509Z,21.02
2018-08-03T05:49:56.528Z,21.11
2018-08-03T05:50:56.372Z,21.01
2018-08-03T05:51:56.333Z,21.12
2018-08-03T05:52:56.223Z,21.04
2018-08-03T05:53:56.237Z,21.11
2018-08-03T05:54:56.081Z,21.17
2018-08-03T05:55:56.056Z,21.30
2018-08-03T05:56:55.937Z,21.30
2018-08-03T05:57:55.980Z,21.30
2018-08-03T05:58:55.791Z,21.33
2018-08-03T05:59:55.773Z,21.35
2018-08-03T06:00:55.648Z,21.45
2018-08-03T06:01:55.681Z,21.45
2018-08-03T06:02:55.508Z,21.49
2018-08-03T06:03:55.502Z,21.49
2018-08-03T06:04:55.369Z,21.53
2018-08-03T06:05:55.401Z,21.61
2018-08-03T06:06:55.228Z,21.59
2018-08-03T06:07:55.213Z,21.70
2018-08-03T06:08:55.082Z,21.81
2018-08-03T06:09:55.124Z,21.85
2018-08-03T06:10:54.938Z,21.86
2018-08-03T06:11:54.932Z,21.98
2018-08-03T06:12:54.794Z,21.92
2018-08-03T06:13:55.780Z,22.01
2018-08-03T06:14:54.711Z,22.02
2018-08-03T06:15:54.650Z,22.04
2018-08-03T06:16:54.511Z,22.12
2018-08-03T06:17:54.459Z,22.22
2018-08-03T06:18:54.365Z,22.20
2018-08-03T06:19:54.369Z,22.16
2018-08-03T06:20:54.228Z,22.23
2018-08-03T06:21:54.185Z,22.28
2018-08-03T06:22:54.086Z,22.28
2018-08-03T06:23:54.091Z,22.32
2018-08-03T06:24:53.945Z,22.41
2018-08-03T06:25:53.899Z,22.41
2018-08-03T06:26:53.799Z,22.38
2018-08-03T06:27:53.807Z,22.52
2018-08-03T06:28:53.658Z,22.47
2018-08-03T06:29:53.618Z,22.67
2018-08-03T06:30:53.516Z,22.56
2018-08-03T06:31:53.532Z,22.68
2018-08-03T06:32:53.377Z,22.62
2018-08-03T06:33:53.350Z,22.81
2018-08-03T06:34:53.234Z,22.71
2018-08-03T06:35:53.249Z,22.74
2018-08-03T06:36:53.091Z,22.79
2018-08-03T06:37:53.059Z,22.86
2018-08-03T06:38:52.950Z,22.94
2018-08-03T06:39:52.972Z,22.96
2018-08-03T06:40:52.811Z,23.00
2018-08-03T06:41:52.778Z,23.05
2018-08-03T06:42:52.672Z,23.11
2018-08-03T06:43:52.690Z,23.11
2018-08-03T06:44:52.521Z,23.22
2018-08-03T06:45:52.497Z,23.22
2018-08-03T06:46:52.387Z,23.29
2018-08-03T06:47:52.414Z,23.35
2018-08-03T06:48:52.240Z,23.42
2018-08-03T06:49:52.221Z,23.40
2018-08-03T06:50:52.104Z,23.42
2018-08-03T06:51:52.128Z,23.48
2018-08-03T06:52:51.964Z,23.52
2018-08-03T06:53:52.001Z,23.61
2018-08-03T06:54:51.821Z,23.56
2018-08-03T06:55:51.853Z,23.58
2018-08-03T06:56:51.688Z,23.67
2018-08-03T06:57:51.660Z,23.82
2018-08-03T06:58:51.585Z,23.82
2018-08-03T06:59:51.569Z,23.86
2018-08-03T07:00:51.416Z,23.95
2018-08-03T07:01:51.382Z,23.98
2018-08-03T07:02:51.295Z,24.16
2018-08-03T07:03:51.291Z,24.15
2018-08-03T07:04:51.129Z,24.23
2018-08-03T07:05:51.096Z,24.27
2018-08-03T07:06:50.984Z,24.23
2018-08-03T07:07:51.009Z,24.26
2018-08-03T07:08:50.848Z,24.41
2018-08-03T07:09:50.822Z,24.40
2018-08-03T07:10:50.701Z,24.44
2018-08-03T07:11:50.730Z,24.57
2018-08-03T07:12:50.564Z,24.66
2018-08-03T07:13:50.542Z,24.53
2018-08-03T07:14:50.436Z,24.73
2018-08-03T07:15:50.448Z,24.73
2018-08-03T07:16:50.290Z,24.66
2018-08-03T07:17:50.260Z,24.90
2018-08-03T07:18:50.143Z,25.02
2018-08-03T07:19:50.192Z,25.05
2018-08-03T07:20:50.007Z,25.15
2018-08-03T07:21:49.979Z,25.13
2018-08-03T07:22:49.870Z,25.20
2018-08-03T07:23:49.892Z,25.22
2018-08-03T07:24:49.730Z,25.27
2018-08-03T07:25:49.710Z,25.27
2018-08-03T07:26:49.595Z,25.35
2018-08-03T07:27:49.611Z,25.42
2018-08-03T07:28:49.451Z,25.57
2018-08-03T07:29:49.415Z,25.60
2018-08-03T07:30:49.322Z,25.60
2018-08-03T07:31:49.332Z,25.68
2018-08-03T07:32:49.174Z,25.77
2018-08-03T07:33:49.142Z,25.82
2018-08-03T07:34:49.040Z,25.97
2018-08-03T07:35:49.048Z,25.94
2018-08-03T07:36:48.906Z,26.02
2018-08-03T07:37:48.861Z,26.21
2018-08-03T07:38:48.763Z,26.28
2018-08-03T07:39:48.770Z,26.42
2018-08-03T07:40:48.628Z,26.43
2018-08-03T07:41:48.579Z,26.61
2018-08-03T07:42:48.501Z,26.52
2018-08-03T07:43:48.515Z,26.64
2018-08-03T07:44:48.400Z,26.71
2018-08-03T07:45:48.400Z,26.82
2018-08-03T07:46:48.211Z,26.95
2018-08-03T07:47:48.149Z,27.05
2018-08-03T07:48:48.092Z,27.16
2018-08-03T07:49:48.123Z,27.21
2018-08-03T07:50:47.949Z,27.29
2018-08-03T07:51:47.884Z,27.34
2018-08-03T07:52:47.816Z,27.36
2018-08-03T07:53:47.750Z,27.51
2018-08-03T07:54:47.680Z,27.62
2018-08-03T07:55:47.620Z,27.67
2018-08-03T07:56:47.546Z,27.65
2018-08-03T08:01:05.740Z,28.14
2018-08-03T08:02:05.662Z,28.20
2018-08-03T08:03:05.591Z,28.28
2018-08-03T08:04:05.700Z,28.26
2018-08-03T08:05:05.453Z,28.38
2018-08-03T08:06:05.411Z,28.35
2018-08-03T08:07:05.320Z,28.44
2018-08-03T08:08:05.324Z,28.47
2018-08-03T08:09:05.189Z,28.54
2018-08-03T08:10:05.235Z,28.62
2018-08-03T08:11:05.052Z,28.69
2018-08-03T08:12:05.042Z,28.65
2018-08-03T08:13:04.915Z,28.80
2018-08-03T08:14:04.963Z,28.87
2018-08-03T08:15:04.821Z,28.98
2018-08-03T08:16:04.770Z,29.04
2018-08-03T08:17:04.774Z,29.14
2018-08-03T08:18:04.675Z,29.11
2018-08-03T08:19:04.516Z,29.22
2018-08-03T08:20:04.484Z,29.21
2018-08-03T08:21:04.387Z,29.36
2018-08-03T08:22:04.388Z,29.38
2018-08-03T08:23:04.258Z,29.41
2018-08-03T08:24:05.237Z,29.55
2018-08-03T08:25:04.122Z,29.43
2018-08-03T08:26:04.224Z,29.50
2018-08-03T08:27:03.991Z,29.47
2018-08-03T08:28:04.026Z,29.58
2018-08-03T08:29:03.856Z,29.60
2018-08-03T08:30:03.931Z,29.63
2018-08-03T08:31:03.733Z,29.78
2018-08-03T08:32:03.844Z,29.92
2018-08-03T08:33:03.611Z,30.05
2018-08-03T08:34:03.653Z,29.97
2018-08-03T08:35:03.466Z,30.08
2018-08-03T08:36:03.563Z,30.10
2018-08-03T08:37:03.402Z,30.26
2018-08-03T08:38:03.377Z,30.37
2018-08-03T08:39:03.207Z,30.39
2018-08-03T08:40:03.294Z,30.46
2018-08-03T08:41:03.091Z,30.44
2018-08-03T08:42:03.196Z,30.56
2018-08-03T08:43:02.950Z,30.55
2018-08-03T08:44:03.006Z,30.68
2018-08-03T08:45:02.821Z,30.67
2018-08-03T08:46:02.918Z,30.62
2018-08-03T08:47:02.691Z,30.78
2018-08-03T08:48:02.832Z,30.77
2018-08-03T08:49:02.577Z,30.89
2018-08-03T08:50:02.639Z,30.87
2018-08-03T08:51:02.433Z,30.93
2018-08-03T08:52:02.580Z,31.01
2018-08-03T08:53:02.300Z,31.09
2018-08-03T08:54:02.235Z,31.11
2018-08-03T08:55:02.267Z,31.18
2018-08-03T08:56:02.111Z,31.20
2018-08-03T08:57:02.086Z,31.21
2018-08-03T08:58:01.978Z,31.27
2018-08-03T08:59:03.111Z,31.27
2018-08-03T09:00:01.906Z,31.26
2018-08-03T09:01:03.998Z,31.29
2018-08-03T09:02:01.755Z,31.18
2018-08-03T09:03:01.804Z,31.12
2018-08-03T09:04:01.594Z,31.20
2018-08-03T09:05:01.531Z,31.29
2018-08-03T09:06:01.510Z,31.33
2018-08-03T09:07:01.401Z,31.42
2018-08-03T09:08:01.531Z,31.51
2018-08-03T09:09:01.278Z,31.55
2018-08-03T09:10:01.346Z,31.64
2018-08-03T09:11:01.288Z,31.78
2018-08-03T09:12:01.254Z,31.91
2018-08-03T09:13:01.075Z,31.95
2018-08-03T09:14:01.164Z,31.99
2018-08-03T09:15:00.896Z,32.02
2018-08-03T09:16:00.976Z,31.95
2018-08-03T09:17:00.772Z,31.78
2018-08-03T09:18:00.702Z,31.63
2018-08-03T09:19:00.683Z,31.51
2018-08-03T09:20:00.796Z,31.51
2018-08-03T09:21:00.514Z,31.68
2018-08-03T09:22:00.462Z,31.75
2018-08-03T09:23:00.387Z,31.80
2018-08-03T09:24:00.512Z,31.91
2018-08-03T09:25:00.263Z,31.90
2018-08-03T09:26:00.329Z,31.91
2018-08-03T09:27:00.134Z,31.99
2018-08-03T09:28:00.134Z,32.06
2018-08-03T09:29:00.012Z,32.16
2018-08-03T09:30:00.150Z,32.20
2018-08-03T09:30:59.939Z,32.16
2018-08-03T09:31:59.914Z,32.33
2018-08-03T09:32:59.783Z,32.42
2018-08-03T09:33:59.874Z,32.39
2018-08-03T09:34:59.642Z,32.42
2018-08-03T09:35:59.782Z,32.50
2018-08-03T09:36:59.504Z,32.54
2018-08-03T09:37:59.592Z,32.57
2018-08-03T09:38:59.380Z,32.57
2018-08-03T09:39:59.502Z,32.60
2018-08-03T09:40:59.259Z,32.72
2018-08-03T09:41:59.414Z,32.73
2018-08-03T09:42:59.140Z,32.75
2018-08-03T09:43:59.220Z,32.83
2018-08-03T09:44:59.003Z,32.72
2018-08-03T09:45:59.132Z,32.57
2018-08-03T09:46:58.878Z,32.36
2018-08-03T09:47:58.839Z,32.25
2018-08-03T09:48:58.753Z,32.32
2018-08-03T09:49:58.688Z,32.38
2018-08-03T09:50:58.657Z,32.40
2018-08-03T09:51:58.564Z,32.45
2018-08-03T09:52:58.504Z,32.57
2018-08-03T09:53:58.579Z,32.57
2018-08-03T09:54:58.384Z,32.69
2018-08-03T09:55:58.313Z,32.80
2018-08-03T09:56:58.249Z,32.80
2018-08-03T09:57:58.188Z,32.88
2018-08-03T09:58:58.128Z,32.91
2018-08-03T09:59:58.064Z,32.95
2018-08-03T10:00:58.004Z,33.09
2018-08-03T10:01:57.938Z,32.92
2018-08-03T10:02:58.024Z,32.72
2018-08-03T10:03:57.814Z,32.75
2018-08-03T10:04:57.937Z,32.88
2018-08-03T10:05:57.692Z,32.83
2018-08-03T10:06:57.846Z,32.75
2018-08-03T10:07:57.568Z,32.83
2018-08-03T10:08:57.655Z,32.76
2018-08-03T10:09:57.444Z,32.84
2018-08-03T10:10:57.561Z,32.88
2018-08-03T10:11:57.318Z,32.89
2018-08-03T10:12:57.485Z,32.99
2018-08-03T10:13:57.195Z,33.07
2018-08-03T10:14:57.183Z,33.24
2018-08-03T10:15:57.073Z,33.21
2018-08-03T10:16:57.095Z,33.36
2018-08-03T10:17:56.945Z,33.45
2018-08-03T10:18:57.006Z,33.34
2018-08-03T10:19:56.819Z,33.29
2018-08-03T10:20:56.816Z,33.34
2018-08-03T10:21:56.699Z,33.39
2018-08-03T10:22:56.727Z,33.30
2018-08-03T10:23:56.574Z,33.36
2018-08-03T10:24:56.639Z,33.34
2018-08-03T10:25:56.454Z,33.27
2018-08-03T10:26:56.450Z,33.13
2018-08-03T10:27:56.331Z,33.30
2018-08-03T10:28:56.355Z,33.40
2018-08-03T10:29:56.204Z,33.34
2018-08-03T10:30:56.141Z,33.52
2018-08-03T10:31:56.194Z,33.61
2018-08-03T10:32:56.019Z,33.85
2018-08-03T10:33:55.956Z,33.98
2018-08-03T10:34:56.040Z,33.86
2018-08-03T10:35:55.837Z,33.74
2018-08-03T10:36:55.800Z,33.66
2018-08-03T10:37:55.714Z,33.67
2018-08-03T10:38:55.711Z,33.69
2018-08-03T10:39:55.588Z,33.82
2018-08-03T10:40:55.625Z,33.79
2018-08-03T10:41:55.468Z,33.91
2018-08-03T10:42:55.503Z,33.91
2018-08-03T10:43:55.341Z,33.85
2018-08-03T10:44:55.342Z,33.88
2018-08-03T10:45:55.223Z,33.85
2018-08-03T10:46:55.252Z,33.76
2018-08-03T10:47:55.096Z,33.92
2018-08-03T10:48:55.063Z,34.10
2018-08-03T10:49:54.974Z,34.16
2018-08-03T10:50:54.973Z,34.08
2018-08-03T10:51:54.852Z,34.07
2018-08-03T10:52:54.891Z,34.05
2018-08-03T10:53:54.728Z,34.22
2018-08-03T10:54:54.695Z,34.32
2018-08-03T10:55:54.605Z,34.41
2018-08-03T10:56:54.608Z,34.62
2018-08-03T10:57:54.486Z,34.66
2018-08-03T10:58:55.542Z,34.67
2018-08-03T10:59:54.360Z,34.76
2018-08-03T11:00:54.327Z,34.44
2018-08-03T11:01:54.241Z,34.29
2018-08-03T11:02:54.240Z,34.30
2018-08-03T11:03:54.117Z,34.30
2018-08-03T11:04:54.152Z,34.29
2018-08-03T11:05:53.998Z,34.38
2018-08-03T11:06:54.025Z,34.48
2018-08-03T11:07:53.878Z,34.53
2018-08-03T11:08:53.869Z,34.47
2018-08-03T11:09:53.752Z,34.57
2018-08-03T11:10:53.781Z,34.72
2018-08-03T11:11:53.630Z,34.73
2018-08-03T11:12:53.694Z,34.73
2018-08-03T11:13:53.563Z,34.76
2018-08-03T11:14:53.507Z,34.53
2018-08-03T11:15:53.386Z,34.49
2018-08-03T11:16:53.420Z,34.29
2018-08-03T11:17:53.267Z,34.23
2018-08-03T11:18:53.328Z,34.01
2018-08-03T11:19:53.149Z,33.98
2018-08-03T11:20:53.140Z,33.91
2018-08-03T11:21:53.024Z,33.58
2018-08-03T11:22:52.965Z,33.54
2018-08-03T11:23:53.004Z,33.40
2018-08-03T11:24:52.846Z,33.51
2018-08-03T11:25:52.783Z,33.45
2018-08-03T11:26:52.772Z,33.27
2018-08-03T11:27:52.660Z,33.20
2018-08-03T11:28:52.689Z,33.34
2018-08-03T11:29:52.537Z,33.49
2018-08-03T11:30:52.586Z,33.54
2018-08-03T11:31:52.413Z,33.70
2018-08-03T11:32:52.400Z,33.83
2018-08-03T11:33:52.299Z,33.86
2018-08-03T11:34:52.307Z,33.86
2018-08-03T11:35:52.172Z,33.86
2018-08-03T11:36:52.222Z,33.73
2018-08-03T11:37:52.051Z,33.55
2018-08-03T11:38:52.031Z,33.37
2018-08-03T11:39:51.928Z,33.49
2018-08-03T11:40:52.001Z,33.56
2018-08-03T11:41:51.806Z,33.61
2018-08-03T11:42:51.855Z,33.74
2018-08-03T11:43:51.688Z,33.98
2018-08-03T11:44:51.622Z,34.01
2018-08-03T11:45:51.667Z,33.97
2018-08-03T11:46:51.502Z,34.00
2018-08-03T11:47:51.507Z,34.01
2018-08-03T11:48:51.383Z,34.05
2018-08-03T11:49:51.392Z,34.25
2018-08-03T11:50:51.262Z,34.29
2018-08-03T11:51:51.307Z,34.44
2018-08-03T11:52:51.135Z,34.53
2018-08-03T11:53:51.111Z,34.63
2018-08-03T11:54:51.019Z,34.64
2018-08-03T11:55:51.025Z,34.60
2018-08-03T11:56:50.891Z,34.49
2018-08-03T11:57:50.933Z,34.35
2018-08-03T11:58:50.779Z,34.32
2018-08-03T11:59:50.743Z,34.26
2018-08-03T12:00:50.665Z,34.32
2018-08-03T12:01:50.596Z,34.38
2018-08-03T12:02:50.531Z,34.35
2018-08-03T12:03:50.567Z,34.38
2018-08-03T12:04:50.408Z,34.38
2018-08-03T12:05:50.375Z,34.30
2018-08-03T12:06:50.288Z,34.30
2018-08-03T12:07:50.288Z,34.30
2018-08-03T12:08:50.168Z,34.34
2018-08-03T12:09:50.107Z,34.27
2018-08-03T12:10:50.047Z,34.30
2018-08-03T12:11:50.007Z,34.53
2018-08-03T12:12:49.926Z,34.49
2018-08-03T12:13:49.920Z,34.49
2018-08-03T12:14:49.805Z,34.51
2018-08-03T12:15:49.830Z,34.38
2018-08-03T12:16:49.682Z,34.29
2018-08-03T12:17:49.814Z,34.30
2018-08-03T12:18:49.562Z,34.08
2018-08-03T12:19:49.552Z,34.20
2018-08-03T12:20:49.446Z,34.22
2018-08-03T12:21:49.461Z,34.14
2018-08-03T12:22:49.323Z,34.10
2018-08-03T12:23:49.273Z,34.10
2018-08-03T12:24:49.279Z,34.10
2018-08-03T12:25:49.137Z,34.10
2018-08-03T12:26:49.189Z,34.18
2018-08-03T12:27:49.035Z,34.10
2018-08-03T12:28:48.999Z,34.07
2018-08-03T12:29:48.894Z,34.16
2018-08-03T12:30:48.911Z,34.25
2018-08-03T12:31:48.777Z,34.29
2018-08-03T12:32:48.822Z,34.32
2018-08-03T12:33:48.652Z,34.47
2018-08-03T12:34:48.631Z,34.45
2018-08-03T12:35:48.531Z,34.57
2018-08-03T12:36:48.571Z,34.64
2018-08-03T12:37:48.411Z,34.76
2018-08-03T12:38:48.460Z,34.79
2018-08-03T12:39:48.328Z,34.82
2018-08-03T12:40:48.264Z,34.94
2018-08-03T12:41:48.169Z,34.95
2018-08-03T12:42:48.173Z,35.05
2018-08-03T12:43:48.045Z,34.97
2018-08-03T12:44:48.087Z,34.87
2018-08-03T12:45:47.930Z,34.94
2018-08-03T12:46:47.896Z,34.79
2018-08-03T12:47:47.804Z,34.75
2018-08-03T12:48:47.806Z,34.76
2018-08-03T12:49:47.685Z,34.75
2018-08-03T12:50:47.718Z,34.77
2018-08-03T12:51:47.560Z,34.79
2018-08-03T12:52:47.522Z,34.79
2018-08-03T12:53:47.534Z,34.76
2018-08-03T12:54:47.389Z,34.83